sensor_id;sensor_type;location;lat;lon;timestamp;temperature;humidity
22578;DHT22;11455;52.390;13.028;2022-12-07T00:03:35;4.90;99.90
22578;DHT22;11455;52.390;13.028;2022-12-07T00:06:04;5.00;99.90
22578;DHT22;11455;52.390;13.028;2022-12-07T00:08:31;4.90;99.90
22578;DHT22;11455;52.390;13.028;2022-12-07T00:11:00;5.00;99.90
22578;DHT22;11455;52.390;13.028;2022-12-07T00:13:26;4.90;99.90
22578;DHT22;11455;52.390;13.028;2022-12-07T00:15:52;4.90;99.90
22578;DHT22;11455;52.390;13.028;2022-12-07T00:18:17;4.90;99.90
22578;DHT22;11455;52.390;13.028;2022-12-07T00:20:46;4.90;99.90
22578;DHT22;11455;52.390;13.028;2022-12-07T00:23:11;4.80;99.90
22578;DHT22;11455;52.390;13.028;2022-12-07T00:25:37;4.80;99.90
22578;DHT22;11455;52.390;13.028;2022-12-07T00:28:03;4.80;99.90
22578;DHT22;11455;52.390;13.028;2022-12-07T00:30:28;4.80;99.90
22578;DHT22;11455;52.390;13.028;2022-12-07T00:32:54;4.90;99.90
22578;DHT22;11455;52.390;13.028;2022-12-07T00:35:22;4.90;99.90
22578;DHT22;11455;52.390;13.028;2022-12-07T00:37:47;5.00;99.90
22578;DHT22;11455;52.390;13.028;2022-12-07T00:40:13;5.00;99.90
22578;DHT22;11455;52.390;13.028;2022-12-07T00:42:39;5.00;99.90
22578;DHT22;11455;52.390;13.028;2022-12-07T00:45:07;5.10;99.90
22578;DHT22;11455;52.390;13.028;2022-12-07T00:47:33;5.10;99.90
22578;DHT22;11455;52.390;13.028;2022-12-07T00:49:58;5.00;99.90
22578;DHT22;11455;52.390;13.028;2022-12-07T00:52:25;5.10;99.90
22578;DHT22;11455;52.390;13.028;2022-12-07T00:54:51;5.00;99.90
22578;DHT22;11455;52.390;13.028;2022-12-07T00:57:16;5.00;99.90
22578;DHT22;11455;52.390;13.028;2022-12-07T00:59:42;5.00;99.90
22578;DHT22;11455;52.390;13.028;2022-12-07T01:02:07;5.00;99.90
22578;DHT22;11455;52.390;13.028;2022-12-07T01:04:36;5.10;99.90
22578;DHT22;11455;52.390;13.028;2022-12-07T01:07:01;5.10;99.90
22578;DHT22;11455;52.390;13.028;2022-12-07T01:09:27;5.00;99.90
22578;DHT22;11455;52.390;13.028;2022-12-07T01:11:53;5.00;99.90
22578;DHT22;11455;52.390;13.028;2022-12-07T01:14:18;5.00;99.90
22578;DHT22;11455;52.390;13.028;2022-12-07T01:16:46;4.90;99.90
22578;DHT22;11455;52.390;13.028;2022-12-07T01:19:12;4.90;99.90
22578;DHT22;11455;52.390;13.028;2022-12-07T01:21:38;4.90;99.90
22578;DHT22;11455;52.390;13.028;2022-12-07T01:24:04;4.90;99.90
22578;DHT22;11455;52.390;13.028;2022-12-07T01:26:30;4.80;99.90
22578;DHT22;11455;52.390;13.028;2022-12-07T01:28:56;4.90;99.90
22578;DHT22;11455;52.390;13.028;2022-12-07T01:31:24;4.90;99.90
22578;DHT22;11455;52.390;13.028;2022-12-07T01:33:52;4.90;99.90
22578;DHT22;11455;52.390;13.028;2022-12-07T01:36:18;4.80;99.90
22578;DHT22;11455;52.390;13.028;2022-12-07T01:38:47;4.90;99.90
22578;DHT22;11455;52.390;13.028;2022-12-07T01:41:13;4.90;99.90
22578;DHT22;11455;52.390;13.028;2022-12-07T01:46:26;4.90;99.90
22578;DHT22;11455;52.390;13.028;2022-12-07T01:48:52;4.90;99.90
22578;DHT22;11455;52.390;13.028;2022-12-07T01:51:20;4.90;99.90
22578;DHT22;11455;52.390;13.028;2022-12-07T01:53:49;4.90;99.90
22578;DHT22;11455;52.390;13.028;2022-12-07T01:56:19;4.90;99.90
22578;DHT22;11455;52.390;13.028;2022-12-07T01:58:48;4.80;99.90
22578;DHT22;11455;52.390;13.028;2022-12-07T02:01:14;4.90;99.90
22578;DHT22;11455;52.390;13.028;2022-12-07T02:03:42;4.90;99.90
22578;DHT22;11455;52.390;13.028;2022-12-07T02:06:08;4.90;99.90
22578;DHT22;11455;52.390;13.028;2022-12-07T02:08:35;4.80;99.90
22578;DHT22;11455;52.390;13.028;2022-12-07T02:11:02;4.80;99.90
22578;DHT22;11455;52.390;13.028;2022-12-07T02:13:29;4.80;99.90
22578;DHT22;11455;52.390;13.028;2022-12-07T02:31:19;4.70;99.90
22578;DHT22;11455;52.390;13.028;2022-12-07T02:33:48;4.70;99.90
22578;DHT22;11455;52.390;13.028;2022-12-07T02:36:23;4.70;99.90
22578;DHT22;11455;52.390;13.028;2022-12-07T02:41:25;4.70;99.90
22578;DHT22;11455;52.390;13.028;2022-12-07T02:43:57;4.70;99.90
22578;DHT22;11455;52.390;13.028;2022-12-07T02:46:28;4.70;99.90
22578;DHT22;11455;52.390;13.028;2022-12-07T02:48:55;4.70;99.90
22578;DHT22;11455;52.390;13.028;2022-12-07T02:51:29;4.70;99.90
22578;DHT22;11455;52.390;13.028;2022-12-07T02:53:55;4.70;99.90
22578;DHT22;11455;52.390;13.028;2022-12-07T03:01:30;4.80;99.90
22578;DHT22;11455;52.390;13.028;2022-12-07T03:04:11;4.80;99.90
22578;DHT22;11455;52.390;13.028;2022-12-07T03:06:42;4.80;99.90
22578;DHT22;11455;52.390;13.028;2022-12-07T03:11:41;4.80;99.90
22578;DHT22;11455;52.390;13.028;2022-12-07T03:16:55;4.70;99.90
22578;DHT22;11455;52.390;13.028;2022-12-07T03:19:21;4.60;99.90
22578;DHT22;11455;52.390;13.028;2022-12-07T03:21:53;4.60;99.90
22578;DHT22;11455;52.390;13.028;2022-12-07T03:24:21;4.60;99.90
22578;DHT22;11455;52.390;13.028;2022-12-07T03:27:03;4.50;99.90
22578;DHT22;11455;52.390;13.028;2022-12-07T03:32:26;4.70;99.90
22578;DHT22;11455;52.390;13.028;2022-12-07T03:37:28;4.60;99.90
22578;DHT22;11455;52.390;13.028;2022-12-07T03:42:27;4.50;99.90
22578;DHT22;11455;52.390;13.028;2022-12-07T03:44:52;4.50;99.90
22578;DHT22;11455;52.390;13.028;2022-12-07T03:49:51;4.40;99.90
22578;DHT22;11455;52.390;13.028;2022-12-07T03:52:21;4.30;99.90
22578;DHT22;11455;52.390;13.028;2022-12-07T03:54:49;4.30;99.90
22578;DHT22;11455;52.390;13.028;2022-12-07T03:57:17;4.30;99.90
22578;DHT22;11455;52.390;13.028;2022-12-07T03:59:43;4.20;99.90
22578;DHT22;11455;52.390;13.028;2022-12-07T04:02:12;4.20;99.90
22578;DHT22;11455;52.390;13.028;2022-12-07T04:04:39;4.30;99.90
22578;DHT22;11455;52.390;13.028;2022-12-07T04:07:07;4.30;99.90
22578;DHT22;11455;52.390;13.028;2022-12-07T04:09:33;4.30;99.90
22578;DHT22;11455;52.390;13.028;2022-12-07T04:11:59;4.40;99.90
22578;DHT22;11455;52.390;13.028;2022-12-07T04:14:30;4.40;99.90
22578;DHT22;11455;52.390;13.028;2022-12-07T04:16:59;4.40;99.90
22578;DHT22;11455;52.390;13.028;2022-12-07T04:19:25;4.40;99.90
22578;DHT22;11455;52.390;13.028;2022-12-07T04:21:51;4.40;99.90
22578;DHT22;11455;52.390;13.028;2022-12-07T04:24:17;4.50;99.90
22578;DHT22;11455;52.390;13.028;2022-12-07T04:26:46;4.50;99.90
22578;DHT22;11455;52.390;13.028;2022-12-07T04:29:12;4.40;99.90
22578;DHT22;11455;52.390;13.028;2022-12-07T04:31:41;4.50;99.90
22578;DHT22;11455;52.390;13.028;2022-12-07T04:34:07;4.50;99.90
22578;DHT22;11455;52.390;13.028;2022-12-07T04:36:33;4.40;99.90
22578;DHT22;11455;52.390;13.028;2022-12-07T04:39:02;4.40;99.90
22578;DHT22;11455;52.390;13.028;2022-12-07T04:41:28;4.40;99.90
22578;DHT22;11455;52.390;13.028;2022-12-07T04:43:56;4.50;99.90
22578;DHT22;11455;52.390;13.028;2022-12-07T04:46:23;4.50;99.90
22578;DHT22;11455;52.390;13.028;2022-12-07T04:48:49;4.50;99.90
22578;DHT22;11455;52.390;13.028;2022-12-07T04:51:18;4.50;99.90
22578;DHT22;11455;52.390;13.028;2022-12-07T04:53:44;4.50;99.90
22578;DHT22;11455;52.390;13.028;2022-12-07T04:56:10;4.50;99.90
22578;DHT22;11455;52.390;13.028;2022-12-07T04:58:36;4.40;99.90
22578;DHT22;11455;52.390;13.028;2022-12-07T05:01:01;4.40;99.90
22578;DHT22;11455;52.390;13.028;2022-12-07T05:03:27;4.40;99.90
22578;DHT22;11455;52.390;13.028;2022-12-07T05:05:53;4.40;99.90
22578;DHT22;11455;52.390;13.028;2022-12-07T05:08:18;4.40;99.90
22578;DHT22;11455;52.390;13.028;2022-12-07T05:10:44;4.40;99.90
22578;DHT22;11455;52.390;13.028;2022-12-07T05:13:10;4.40;1.00
22578;DHT22;11455;52.390;13.028;2022-12-07T05:15:35;4.40;1.00
22578;DHT22;11455;52.390;13.028;2022-12-07T05:18:04;4.50;1.00
22578;DHT22;11455;52.390;13.028;2022-12-07T05:20:33;4.50;1.00
22578;DHT22;11455;52.390;13.028;2022-12-07T05:22:58;4.50;1.00
22578;DHT22;11455;52.390;13.028;2022-12-07T05:25:24;4.50;1.00
22578;DHT22;11455;52.390;13.028;2022-12-07T05:27:50;4.50;1.00
22578;DHT22;11455;52.390;13.028;2022-12-07T05:30:15;4.50;1.00
22578;DHT22;11455;52.390;13.028;2022-12-07T05:32:41;4.50;1.00
22578;DHT22;11455;52.390;13.028;2022-12-07T05:35:07;4.60;1.00
22578;DHT22;11455;52.390;13.028;2022-12-07T05:37:32;4.70;1.00
22578;DHT22;11455;52.390;13.028;2022-12-07T05:39:58;4.70;1.00
22578;DHT22;11455;52.390;13.028;2022-12-07T05:42:24;4.70;1.00
22578;DHT22;11455;52.390;13.028;2022-12-07T05:44:52;4.60;1.00
22578;DHT22;11455;52.390;13.028;2022-12-07T05:47:20;4.60;1.00
22578;DHT22;11455;52.390;13.028;2022-12-07T05:49:46;4.70;1.00
22578;DHT22;11455;52.390;13.028;2022-12-07T05:52:12;4.70;1.00
22578;DHT22;11455;52.390;13.028;2022-12-07T05:54:37;4.70;1.00
22578;DHT22;11455;52.390;13.028;2022-12-07T05:57:03;4.80;1.00
22578;DHT22;11455;52.390;13.028;2022-12-07T05:59:29;4.70;1.00
22578;DHT22;11455;52.390;13.028;2022-12-07T06:01:58;4.70;1.00
22578;DHT22;11455;52.390;13.028;2022-12-07T06:04:25;4.80;1.00
22578;DHT22;11455;52.390;13.028;2022-12-07T06:06:52;4.80;1.00
22578;DHT22;11455;52.390;13.028;2022-12-07T06:09:18;4.80;1.00
22578;DHT22;11455;52.390;13.028;2022-12-07T06:11:47;4.80;1.00
22578;DHT22;11455;52.390;13.028;2022-12-07T06:14:31;4.80;1.00
22578;DHT22;11455;52.390;13.028;2022-12-07T06:16:57;4.90;1.00
22578;DHT22;11455;52.390;13.028;2022-12-07T06:19:23;5.00;1.00
22578;DHT22;11455;52.390;13.028;2022-12-07T06:21:49;5.10;1.00
22578;DHT22;11455;52.390;13.028;2022-12-07T06:24:15;5.10;1.00
22578;DHT22;11455;52.390;13.028;2022-12-07T06:26:44;5.10;1.00
22578;DHT22;11455;52.390;13.028;2022-12-07T06:29:10;5.10;1.00
22578;DHT22;11455;52.390;13.028;2022-12-07T06:31:36;5.20;1.00
22578;DHT22;11455;52.390;13.028;2022-12-07T06:34:03;5.20;1.00
22578;DHT22;11455;52.390;13.028;2022-12-07T06:36:31;5.20;1.00
22578;DHT22;11455;52.390;13.028;2022-12-07T06:38:57;5.20;1.00
22578;DHT22;11455;52.390;13.028;2022-12-07T06:41:23;5.20;1.00
22578;DHT22;11455;52.390;13.028;2022-12-07T06:43:49;5.30;1.00
22578;DHT22;11455;52.390;13.028;2022-12-07T06:46:18;5.30;1.00
22578;DHT22;11455;52.390;13.028;2022-12-07T06:48:43;5.30;1.00
22578;DHT22;11455;52.390;13.028;2022-12-07T06:51:09;5.40;1.00
22578;DHT22;11455;52.390;13.028;2022-12-07T06:53:35;5.40;1.00
22578;DHT22;11455;52.390;13.028;2022-12-07T06:56:02;5.30;1.00
22578;DHT22;11455;52.390;13.028;2022-12-07T06:58:28;5.40;1.00
22578;DHT22;11455;52.390;13.028;2022-12-07T07:00:54;5.40;1.00
22578;DHT22;11455;52.390;13.028;2022-12-07T07:03:20;5.40;1.00
22578;DHT22;11455;52.390;13.028;2022-12-07T07:05:48;5.40;1.00
22578;DHT22;11455;52.390;13.028;2022-12-07T07:08:14;5.40;1.00
22578;DHT22;11455;52.390;13.028;2022-12-07T07:10:40;5.40;1.00
22578;DHT22;11455;52.390;13.028;2022-12-07T07:13:06;5.40;1.00
22578;DHT22;11455;52.390;13.028;2022-12-07T07:15:32;5.40;1.00
22578;DHT22;11455;52.390;13.028;2022-12-07T07:17:58;5.40;1.00
22578;DHT22;11455;52.390;13.028;2022-12-07T07:20:24;5.40;1.00
22578;DHT22;11455;52.390;13.028;2022-12-07T07:22:49;5.40;1.00
22578;DHT22;11455;52.390;13.028;2022-12-07T07:25:15;5.40;1.00
22578;DHT22;11455;52.390;13.028;2022-12-07T07:27:41;5.40;1.00
22578;DHT22;11455;52.390;13.028;2022-12-07T07:30:07;5.50;99.90
22578;DHT22;11455;52.390;13.028;2022-12-07T07:32:33;5.50;99.90
22578;DHT22;11455;52.390;13.028;2022-12-07T07:34:59;5.40;99.90
22578;DHT22;11455;52.390;13.028;2022-12-07T07:37:24;5.40;99.90
22578;DHT22;11455;52.390;13.028;2022-12-07T07:39:50;5.40;99.90
22578;DHT22;11455;52.390;13.028;2022-12-07T07:42:16;5.40;99.90
22578;DHT22;11455;52.390;13.028;2022-12-07T07:44:45;5.50;99.90
22578;DHT22;11455;52.390;13.028;2022-12-07T07:47:11;5.50;99.90
22578;DHT22;11455;52.390;13.028;2022-12-07T07:49:39;5.50;99.90
22578;DHT22;11455;52.390;13.028;2022-12-07T07:52:05;5.50;99.90
22578;DHT22;11455;52.390;13.028;2022-12-07T07:54:31;5.60;99.90
22578;DHT22;11455;52.390;13.028;2022-12-07T07:56:57;5.50;99.90
22578;DHT22;11455;52.390;13.028;2022-12-07T07:59:23;5.50;99.90
22578;DHT22;11455;52.390;13.028;2022-12-07T08:01:52;5.50;99.90
22578;DHT22;11455;52.390;13.028;2022-12-07T08:04:18;5.60;99.90
22578;DHT22;11455;52.390;13.028;2022-12-07T08:06:43;5.60;99.90
22578;DHT22;11455;52.390;13.028;2022-12-07T08:09:09;5.60;99.90
22578;DHT22;11455;52.390;13.028;2022-12-07T08:11:35;5.70;99.90
22578;DHT22;11455;52.390;13.028;2022-12-07T08:14:02;5.70;99.90
22578;DHT22;11455;52.390;13.028;2022-12-07T08:16:28;5.70;99.90
22578;DHT22;11455;52.390;13.028;2022-12-07T08:18:53;5.50;99.90
22578;DHT22;11455;52.390;13.028;2022-12-07T08:21:19;5.50;99.90
22578;DHT22;11455;52.390;13.028;2022-12-07T08:23:45;5.50;99.90
22578;DHT22;11455;52.390;13.028;2022-12-07T08:26:12;5.40;99.90
22578;DHT22;11455;52.390;13.028;2022-12-07T08:28:38;5.40;99.90
22578;DHT22;11455;52.390;13.028;2022-12-07T08:31:22;5.30;99.90
22578;DHT22;11455;52.390;13.028;2022-12-07T08:33:48;5.20;99.90
22578;DHT22;11455;52.390;13.028;2022-12-07T08:36:14;5.10;99.90
22578;DHT22;11455;52.390;13.028;2022-12-07T08:38:40;5.00;99.90
22578;DHT22;11455;52.390;13.028;2022-12-07T08:41:06;5.00;99.90
22578;DHT22;11455;52.390;13.028;2022-12-07T08:43:35;5.00;99.90
22578;DHT22;11455;52.390;13.028;2022-12-07T08:46:21;5.00;99.90
22578;DHT22;11455;52.390;13.028;2022-12-07T08:48:57;5.10;99.90
22578;DHT22;11455;52.390;13.028;2022-12-07T08:51:24;5.10;99.90
22578;DHT22;11455;52.390;13.028;2022-12-07T08:53:50;5.10;99.90
22578;DHT22;11455;52.390;13.028;2022-12-07T08:56:16;5.20;99.90
22578;DHT22;11455;52.390;13.028;2022-12-07T08:58:42;5.20;99.90
22578;DHT22;11455;52.390;13.028;2022-12-07T09:01:08;5.20;99.90
22578;DHT22;11455;52.390;13.028;2022-12-07T09:03:33;5.30;99.90
22578;DHT22;11455;52.390;13.028;2022-12-07T09:05:59;5.30;99.90
22578;DHT22;11455;52.390;13.028;2022-12-07T09:08:30;5.20;99.90
22578;DHT22;11455;52.390;13.028;2022-12-07T09:10:56;5.20;99.90
22578;DHT22;11455;52.390;13.028;2022-12-07T09:13:22;5.20;99.90
22578;DHT22;11455;52.390;13.028;2022-12-07T09:15:48;5.20;99.90
22578;DHT22;11455;52.390;13.028;2022-12-07T09:18:13;5.20;99.90
22578;DHT22;11455;52.390;13.028;2022-12-07T09:20:39;5.20;99.90
22578;DHT22;11455;52.390;13.028;2022-12-07T09:23:06;5.20;99.90
22578;DHT22;11455;52.390;13.028;2022-12-07T09:25:32;5.20;99.90
22578;DHT22;11455;52.390;13.028;2022-12-07T09:27:58;5.20;99.90
22578;DHT22;11455;52.390;13.028;2022-12-07T09:30:24;5.20;99.90
22578;DHT22;11455;52.390;13.028;2022-12-07T09:32:50;5.20;99.90
22578;DHT22;11455;52.390;13.028;2022-12-07T09:35:15;5.20;99.90
22578;DHT22;11455;52.390;13.028;2022-12-07T09:37:41;5.20;99.90
22578;DHT22;11455;52.390;13.028;2022-12-07T09:40:07;5.10;99.90
22578;DHT22;11455;52.390;13.028;2022-12-07T09:42:34;5.10;99.90
22578;DHT22;11455;52.390;13.028;2022-12-07T09:45:01;5.00;99.90
22578;DHT22;11455;52.390;13.028;2022-12-07T09:47:29;5.00;99.90
22578;DHT22;11455;52.390;13.028;2022-12-07T09:49:59;5.10;99.90
22578;DHT22;11455;52.390;13.028;2022-12-07T09:52:26;5.00;99.90
22578;DHT22;11455;52.390;13.028;2022-12-07T09:54:53;5.00;99.90
22578;DHT22;11455;52.390;13.028;2022-12-07T09:57:25;5.00;99.90
22578;DHT22;11455;52.390;13.028;2022-12-07T09:59:54;5.00;99.90
22578;DHT22;11455;52.390;13.028;2022-12-07T10:02:24;5.00;99.90
22578;DHT22;11455;52.390;13.028;2022-12-07T10:04:50;5.00;99.90
22578;DHT22;11455;52.390;13.028;2022-12-07T10:07:15;5.00;99.90
22578;DHT22;11455;52.390;13.028;2022-12-07T10:09:41;5.00;99.90
22578;DHT22;11455;52.390;13.028;2022-12-07T10:12:09;5.00;99.90
22578;DHT22;11455;52.390;13.028;2022-12-07T10:14:36;5.10;99.90
22578;DHT22;11455;52.390;13.028;2022-12-07T10:17:02;5.10;99.90
22578;DHT22;11455;52.390;13.028;2022-12-07T10:19:32;5.00;99.90
22578;DHT22;11455;52.390;13.028;2022-12-07T10:22:12;5.00;99.90
22578;DHT22;11455;52.390;13.028;2022-12-07T10:24:39;5.10;99.90
22578;DHT22;11455;52.390;13.028;2022-12-07T10:27:39;5.10;99.90
22578;DHT22;11455;52.390;13.028;2022-12-07T10:29:58;5.10;99.90
22578;DHT22;11455;52.390;13.028;2022-12-07T10:37:40;5.40;99.90
22578;DHT22;11455;52.390;13.028;2022-12-07T10:40:25;5.40;99.90
22578;DHT22;11455;52.390;13.028;2022-12-07T10:45:26;5.50;99.90
22578;DHT22;11455;52.390;13.028;2022-12-07T10:47:55;5.50;99.90
22578;DHT22;11455;52.390;13.028;2022-12-07T11:21:24;5.50;99.90
22578;DHT22;11455;52.390;13.028;2022-12-07T11:36:55;5.70;99.90
22578;DHT22;11455;52.390;13.028;2022-12-07T11:41:50;5.80;99.90
22578;DHT22;11455;52.390;13.028;2022-12-07T11:47:05;5.90;99.90
22578;DHT22;11455;52.390;13.028;2022-12-07T11:49:39;5.90;99.90
22578;DHT22;11455;52.390;13.028;2022-12-07T11:52:06;5.90;99.90
22578;DHT22;11455;52.390;13.028;2022-12-07T11:54:40;5.90;99.90
22578;DHT22;11455;52.390;13.028;2022-12-07T11:57:09;5.90;99.90
22578;DHT22;11455;52.390;13.028;2022-12-07T11:59:42;5.80;99.90
22578;DHT22;11455;52.390;13.028;2022-12-07T12:02:15;5.90;99.90
22578;DHT22;11455;52.390;13.028;2022-12-07T12:07:23;5.90;99.90
22578;DHT22;11455;52.390;13.028;2022-12-07T12:09:50;6.00;99.90
22578;DHT22;11455;52.390;13.028;2022-12-07T12:23:18;6.10;99.90
22578;DHT22;11455;52.390;13.028;2022-12-07T12:25:46;6.20;99.90
22578;DHT22;11455;52.390;13.028;2022-12-07T12:30:45;6.20;99.90
22578;DHT22;11455;52.390;13.028;2022-12-07T12:33:22;6.20;99.90
22578;DHT22;11455;52.390;13.028;2022-12-07T12:44:00;6.20;99.90
22578;DHT22;11455;52.390;13.028;2022-12-07T12:52:00;6.40;99.90
22578;DHT22;11455;52.390;13.028;2022-12-07T12:54:29;6.30;99.90
22578;DHT22;11455;52.390;13.028;2022-12-07T12:59:22;6.20;99.90
22578;DHT22;11455;52.390;13.028;2022-12-07T13:10:03;6.20;99.90
22578;DHT22;11455;52.390;13.028;2022-12-07T13:12:29;6.30;99.90
22578;DHT22;11455;52.390;13.028;2022-12-07T13:14:56;6.20;99.90
22578;DHT22;11455;52.390;13.028;2022-12-07T13:19:58;6.10;99.90
22578;DHT22;11455;52.390;13.028;2022-12-07T13:24:56;6.10;99.90
22578;DHT22;11455;52.390;13.028;2022-12-07T13:27:22;6.20;99.90
22578;DHT22;11455;52.390;13.028;2022-12-07T13:29:49;6.20;99.90
22578;DHT22;11455;52.390;13.028;2022-12-07T13:32:23;6.20;99.90
22578;DHT22;11455;52.390;13.028;2022-12-07T13:34:49;6.20;99.90
22578;DHT22;11455;52.390;13.028;2022-12-07T13:37:24;6.20;99.90
22578;DHT22;11455;52.390;13.028;2022-12-07T13:39:51;6.20;99.90
22578;DHT22;11455;52.390;13.028;2022-12-07T13:42:30;6.20;99.90
22578;DHT22;11455;52.390;13.028;2022-12-07T13:44:59;6.20;99.90
22578;DHT22;11455;52.390;13.028;2022-12-07T13:47:36;6.30;99.90
22578;DHT22;11455;52.390;13.028;2022-12-07T13:50:24;6.20;99.90
22578;DHT22;11455;52.390;13.028;2022-12-07T13:52:54;6.30;99.90
22578;DHT22;11455;52.390;13.028;2022-12-07T13:55:20;6.20;99.90
22578;DHT22;11455;52.390;13.028;2022-12-07T13:57:47;6.20;99.90
22578;DHT22;11455;52.390;13.028;2022-12-07T14:00:16;6.20;99.90
22578;DHT22;11455;52.390;13.028;2022-12-07T14:02:54;6.20;99.90
22578;DHT22;11455;52.390;13.028;2022-12-07T14:07:57;6.20;99.90
22578;DHT22;11455;52.390;13.028;2022-12-07T14:10:27;6.20;99.90
22578;DHT22;11455;52.390;13.028;2022-12-07T14:12:55;6.20;99.90
22578;DHT22;11455;52.390;13.028;2022-12-07T14:15:23;6.10;99.90
22578;DHT22;11455;52.390;13.028;2022-12-07T14:17:53;6.10;99.90
22578;DHT22;11455;52.390;13.028;2022-12-07T14:20:35;6.10;99.90
22578;DHT22;11455;52.390;13.028;2022-12-07T14:23:02;6.10;99.90
22578;DHT22;11455;52.390;13.028;2022-12-07T14:25:47;6.10;99.90
22578;DHT22;11455;52.390;13.028;2022-12-07T14:28:26;6.00;99.90
22578;DHT22;11455;52.390;13.028;2022-12-07T14:30:52;6.10;99.90
22578;DHT22;11455;52.390;13.028;2022-12-07T14:33:18;6.00;99.90
22578;DHT22;11455;52.390;13.028;2022-12-07T14:35:44;6.00;99.90
22578;DHT22;11455;52.390;13.028;2022-12-07T14:38:09;6.00;99.90
22578;DHT22;11455;52.390;13.028;2022-12-07T14:40:35;5.90;99.90
22578;DHT22;11455;52.390;13.028;2022-12-07T14:43:05;5.90;99.90
22578;DHT22;11455;52.390;13.028;2022-12-07T14:45:32;5.80;99.90
22578;DHT22;11455;52.390;13.028;2022-12-07T14:47:58;5.80;99.90
22578;DHT22;11455;52.390;13.028;2022-12-07T14:50:23;5.90;99.90
22578;DHT22;11455;52.390;13.028;2022-12-07T14:52:56;5.90;99.90
22578;DHT22;11455;52.390;13.028;2022-12-07T14:55:31;5.80;99.90
22578;DHT22;11455;52.390;13.028;2022-12-07T14:57:57;5.80;99.90
22578;DHT22;11455;52.390;13.028;2022-12-07T15:00:24;5.70;99.90
22578;DHT22;11455;52.390;13.028;2022-12-07T15:02:50;5.80;99.90
22578;DHT22;11455;52.390;13.028;2022-12-07T15:05:15;5.80;99.90
22578;DHT22;11455;52.390;13.028;2022-12-07T15:07:41;5.70;99.90
22578;DHT22;11455;52.390;13.028;2022-12-07T15:10:12;5.80;99.90
22578;DHT22;11455;52.390;13.028;2022-12-07T15:12:39;5.70;99.90
22578;DHT22;11455;52.390;13.028;2022-12-07T15:15:07;5.70;99.90
22578;DHT22;11455;52.390;13.028;2022-12-07T15:17:33;5.70;99.90
22578;DHT22;11455;52.390;13.028;2022-12-07T15:19:58;5.70;99.90
22578;DHT22;11455;52.390;13.028;2022-12-07T15:22:24;5.70;99.90
22578;DHT22;11455;52.390;13.028;2022-12-07T15:24:50;5.70;99.90
22578;DHT22;11455;52.390;13.028;2022-12-07T15:27:15;5.70;99.90
22578;DHT22;11455;52.390;13.028;2022-12-07T15:29:41;5.70;99.90
22578;DHT22;11455;52.390;13.028;2022-12-07T15:32:07;5.80;99.90
22578;DHT22;11455;52.390;13.028;2022-12-07T15:34:32;5.80;99.90
22578;DHT22;11455;52.390;13.028;2022-12-07T15:37:00;5.80;99.90
22578;DHT22;11455;52.390;13.028;2022-12-07T15:39:26;5.80;99.90
22578;DHT22;11455;52.390;13.028;2022-12-07T15:41:51;5.80;99.90
22578;DHT22;11455;52.390;13.028;2022-12-07T15:44:17;5.80;99.90
22578;DHT22;11455;52.390;13.028;2022-12-07T15:47:02;5.70;99.90
22578;DHT22;11455;52.390;13.028;2022-12-07T15:49:29;5.70;99.90
22578;DHT22;11455;52.390;13.028;2022-12-07T15:51:54;5.60;99.90
22578;DHT22;11455;52.390;13.028;2022-12-07T15:54:21;5.60;99.90
22578;DHT22;11455;52.390;13.028;2022-12-07T15:56:49;5.60;99.90
22578;DHT22;11455;52.390;13.028;2022-12-07T15:59:15;5.60;99.90
22578;DHT22;11455;52.390;13.028;2022-12-07T16:01:41;5.50;99.90
22578;DHT22;11455;52.390;13.028;2022-12-07T16:04:07;5.60;99.90
22578;DHT22;11455;52.390;13.028;2022-12-07T16:06:33;5.60;99.90
22578;DHT22;11455;52.390;13.028;2022-12-07T16:08:58;5.60;99.90
22578;DHT22;11455;52.390;13.028;2022-12-07T16:11:24;5.50;99.90
22578;DHT22;11455;52.390;13.028;2022-12-07T16:13:50;5.50;99.90
22578;DHT22;11455;52.390;13.028;2022-12-07T16:16:16;5.50;99.90
22578;DHT22;11455;52.390;13.028;2022-12-07T16:18:43;5.40;99.90
22578;DHT22;11455;52.390;13.028;2022-12-07T16:21:09;5.40;99.90
22578;DHT22;11455;52.390;13.028;2022-12-07T16:23:35;5.40;99.90
22578;DHT22;11455;52.390;13.028;2022-12-07T16:26:08;5.40;99.90
22578;DHT22;11455;52.390;13.028;2022-12-07T16:28:34;5.40;99.90
22578;DHT22;11455;52.390;13.028;2022-12-07T16:31:04;5.50;99.90
22578;DHT22;11455;52.390;13.028;2022-12-07T16:33:33;5.40;99.90
22578;DHT22;11455;52.390;13.028;2022-12-07T16:35:59;5.50;99.90
22578;DHT22;11455;52.390;13.028;2022-12-07T16:38:27;5.50;99.90
22578;DHT22;11455;52.390;13.028;2022-12-07T16:40:53;5.50;99.90
22578;DHT22;11455;52.390;13.028;2022-12-07T16:43:19;5.40;99.90
22578;DHT22;11455;52.390;13.028;2022-12-07T16:45:45;5.40;99.90
22578;DHT22;11455;52.390;13.028;2022-12-07T16:48:11;5.40;99.90
22578;DHT22;11455;52.390;13.028;2022-12-07T16:50:38;5.40;99.90
22578;DHT22;11455;52.390;13.028;2022-12-07T16:53:05;5.40;99.90
22578;DHT22;11455;52.390;13.028;2022-12-07T16:55:30;5.40;99.90
22578;DHT22;11455;52.390;13.028;2022-12-07T16:57:56;5.50;99.90
22578;DHT22;11455;52.390;13.028;2022-12-07T17:00:22;5.50;99.90
22578;DHT22;11455;52.390;13.028;2022-12-07T17:02:48;5.40;99.90
22578;DHT22;11455;52.390;13.028;2022-12-07T17:05:13;5.50;99.90
22578;DHT22;11455;52.390;13.028;2022-12-07T17:07:39;5.40;99.90
22578;DHT22;11455;52.390;13.028;2022-12-07T17:10:14;5.30;99.90
22578;DHT22;11455;52.390;13.028;2022-12-07T17:12:40;5.40;99.90
22578;DHT22;11455;52.390;13.028;2022-12-07T17:15:06;5.40;99.90
22578;DHT22;11455;52.390;13.028;2022-12-07T17:17:47;5.40;99.90
22578;DHT22;11455;52.390;13.028;2022-12-07T17:20:16;5.40;99.90
22578;DHT22;11455;52.390;13.028;2022-12-07T17:22:42;5.30;99.90
22578;DHT22;11455;52.390;13.028;2022-12-07T17:25:08;5.30;99.90
22578;DHT22;11455;52.390;13.028;2022-12-07T17:27:35;5.20;99.90
22578;DHT22;11455;52.390;13.028;2022-12-07T17:30:00;5.20;99.90
22578;DHT22;11455;52.390;13.028;2022-12-07T17:32:26;5.20;99.90
22578;DHT22;11455;52.390;13.028;2022-12-07T17:34:52;5.20;99.90
22578;DHT22;11455;52.390;13.028;2022-12-07T17:37:17;5.20;99.90
22578;DHT22;11455;52.390;13.028;2022-12-07T17:39:43;5.20;99.90
22578;DHT22;11455;52.390;13.028;2022-12-07T17:42:09;5.20;99.90
22578;DHT22;11455;52.390;13.028;2022-12-07T17:44:53;5.20;99.90
22578;DHT22;11455;52.390;13.028;2022-12-07T17:47:19;5.20;99.90
22578;DHT22;11455;52.390;13.028;2022-12-07T17:49:46;5.30;99.90
22578;DHT22;11455;52.390;13.028;2022-12-07T17:52:12;5.30;99.90
22578;DHT22;11455;52.390;13.028;2022-12-07T17:54:56;5.30;99.90
22578;DHT22;11455;52.390;13.028;2022-12-07T17:57:22;5.30;99.90
22578;DHT22;11455;52.390;13.028;2022-12-07T17:59:48;5.20;99.90
22578;DHT22;11455;52.390;13.028;2022-12-07T18:02:14;5.30;99.90
22578;DHT22;11455;52.390;13.028;2022-12-07T18:04:39;5.40;99.90